createdAt,value
2019-03-24T00:03:43.876Z,14.59
2019-03-24T00:09:38.865Z,26.12
2019-03-24T00:15:33.867Z,17.61
2019-03-24T00:21:28.887Z,24.07
2019-03-24T00:27:23.881Z,24.5
2019-03-24T00:33:18.886Z,23
2019-03-24T00:39:13.873Z,24.87
2019-03-24T00:45:09.188Z,26.04
2019-03-24T00:51:03.905Z,20.77
2019-03-24T00:56:58.883Z,20.42
2019-03-24T01:02:53.912Z,19.65
2019-03-24T01:08:48.888Z,24.53
2019-03-24T01:14:43.924Z,21.52
2019-03-24T01:20:38.960Z,23.12
2019-03-24T01:26:33.925Z,20.96
2019-03-24T01:32:28.906Z,22.2
2019-03-24T01:38:23.926Z,20.38
2019-03-24T01:44:18.920Z,22.96
2019-03-24T01:50:13.929Z,24.05
2019-03-24T01:56:09.238Z,21.69
2019-03-24T02:02:03.943Z,25.9
2019-03-24T02:07:58.967Z,31.81
2019-03-24T02:13:53.961Z,29.79
2019-03-24T02:19:48.941Z,28.55
2019-03-24T02:25:43.953Z,25.97
2019-03-24T02:31:39.089Z,24.91
2019-03-24T02:37:34.027Z,18.55
2019-03-24T02:43:29.005Z,16.3
2019-03-24T02:49:23.961Z,21.25
2019-03-24T02:55:18.985Z,15.82
2019-03-24T03:01:13.994Z,18.91
2019-03-24T03:07:09.262Z,13.51
2019-03-24T03:13:03.982Z,14.78
2019-03-24T03:18:59.027Z,15.37
2019-03-24T03:24:53.979Z,13.79
2019-03-24T03:30:49.012Z,13.75
2019-03-24T03:36:44.011Z,15.59
2019-03-24T03:42:39.013Z,17.02
2019-03-24T03:48:34.073Z,13.02
2019-03-24T03:54:29.038Z,10.76
2019-03-24T04:00:24.029Z,14.88
2019-03-24T04:06:19.144Z,10.72
2019-03-24T04:12:14.058Z,9.34
2019-03-24T04:18:09.013Z,12.13
2019-03-24T04:24:04.061Z,11.7
2019-03-24T04:29:59.010Z,11.98
2019-03-24T04:35:54.025Z,11.95
2019-03-24T04:41:49.073Z,9.8
2019-03-24T04:47:44.045Z,11.12
2019-03-24T04:53:39.069Z,10.4
2019-03-24T04:59:34.034Z,10.44
2019-03-24T05:05:29.056Z,9.35
2019-03-24T05:11:24.095Z,9.76
2019-03-24T05:17:26.641Z,14.18
2019-03-24T05:23:14.060Z,15.64
2019-03-24T05:29:09.057Z,11.03
2019-03-24T05:35:05.771Z,11.46
2019-03-24T05:40:59.062Z,11.43
2019-03-24T05:46:54.119Z,15.13
2019-03-24T05:52:49.087Z,11.25
2019-03-24T05:58:44.073Z,16.84
2019-03-24T06:04:39.140Z,44.11
2019-03-24T06:10:34.131Z,12.64
2019-03-24T06:16:29.093Z,10.72
2019-03-24T06:22:24.142Z,13.79
2019-03-24T06:28:19.159Z,11.63
2019-03-24T06:34:14.397Z,18.59
2019-03-24T06:40:09.113Z,11.97
2019-03-24T06:46:04.122Z,15.4
2019-03-24T06:51:59.148Z,13.23
2019-03-24T06:57:54.159Z,13.73
2019-03-24T07:03:49.131Z,13.36
2019-03-24T07:09:44.139Z,13.72
2019-03-24T07:15:39.137Z,11.47
2019-03-24T07:21:34.161Z,10.69
2019-03-24T07:27:29.147Z,10.82
2019-03-24T07:33:24.176Z,12.13
2019-03-24T07:39:19.165Z,10.37
2019-03-24T07:45:14.193Z,13.97
2019-03-24T07:51:09.171Z,16.93
2019-03-24T07:57:04.150Z,16.03
2019-03-24T08:02:59.147Z,14.15
2019-03-24T08:08:54.156Z,15.28
2019-03-24T08:14:49.200Z,14.2
2019-03-24T08:20:44.181Z,14.85
2019-03-24T08:26:39.211Z,15.02
2019-03-24T08:32:34.159Z,15.78
2019-03-24T08:38:29.176Z,26.12
2019-03-24T08:44:24.199Z,23
2019-03-24T08:50:19.402Z,18.85
2019-03-24T08:56:14.554Z,12.68
2019-03-24T09:02:09.222Z,10.85
2019-03-24T09:08:04.216Z,14.2
2019-03-24T09:13:59.201Z,9.27
2019-03-24T09:19:54.201Z,13.18
2019-03-24T09:25:49.215Z,9.66
2019-03-24T09:31:44.266Z,11.59
2019-03-24T09:37:39.223Z,15.7
2019-03-24T09:43:34.254Z,7.58
2019-03-24T09:49:29.285Z,9.06
2019-03-24T09:55:24.266Z,6.85
2019-03-24T10:01:19.233Z,8.72
2019-03-24T10:07:14.249Z,5.73
2019-03-24T10:13:09.243Z,5.16
2019-03-24T10:19:13.457Z,2.79
2019-03-24T10:24:59.274Z,4.84
2019-03-24T10:30:54.255Z,3.71
2019-03-24T10:36:49.260Z,8.49
2019-03-24T10:42:44.243Z,6.93
2019-03-24T10:48:39.260Z,3.16
2019-03-24T10:54:34.291Z,2.97
2019-03-24T11:00:29.265Z,2.49
2019-03-24T11:06:24.292Z,2.53
2019-03-24T11:12:19.262Z,2.45
2019-03-24T11:18:14.278Z,3.41
2019-03-24T11:24:09.268Z,2.25
2019-03-24T11:30:04.326Z,3.93
2019-03-24T11:35:59.335Z,2.56
2019-03-24T11:41:54.297Z,2.35
2019-03-24T11:47:49.343Z,2.81
2019-03-24T11:53:44.291Z,3.05
2019-03-24T11:59:39.334Z,1.79
2019-03-24T12:05:34.300Z,2.94
2019-03-24T12:11:29.323Z,4
2019-03-24T12:17:24.307Z,3.53
2019-03-24T12:23:20.993Z,4.04
2019-03-24T12:29:14.636Z,4.24
2019-03-24T12:35:09.368Z,4.38
2019-03-24T12:41:04.355Z,6.44
2019-03-24T12:46:59.334Z,4.27
2019-03-24T12:52:54.343Z,3.7
2019-03-24T12:58:49.351Z,6.6
2019-03-24T13:04:44.342Z,4.11
2019-03-24T13:10:39.384Z,4.14
2019-03-24T13:16:34.426Z,5.13
2019-03-24T13:22:29.355Z,4.53
2019-03-24T13:28:24.396Z,7.13
2019-03-24T13:34:19.376Z,7.61
2019-03-24T13:40:14.378Z,9.81
2019-03-24T13:46:09.382Z,16.91
2019-03-24T13:52:04.361Z,13.1
2019-03-24T13:57:59.410Z,6.27
2019-03-24T14:03:54.398Z,6.72
2019-03-24T14:09:49.403Z,6.95
2019-03-24T14:15:44.627Z,13.45
2019-03-24T14:21:39.409Z,5.86
2019-03-24T14:27:34.420Z,7.33
2019-03-24T14:33:29.473Z,8.54
2019-03-24T14:39:24.414Z,8.77
2019-03-24T14:45:19.421Z,24.02
2019-03-24T14:51:14.427Z,12.07
2019-03-24T14:57:09.421Z,9.38
2019-03-24T15:03:04.412Z,12.23
2019-03-24T15:08:59.447Z,11.76
2019-03-24T15:14:54.437Z,13.68
2019-03-24T15:20:49.419Z,11.75
2019-03-24T15:26:44.430Z,9
2019-03-24T15:32:39.488Z,11.43
2019-03-24T15:38:34.468Z,10.48
2019-03-24T15:44:29.496Z,10.71
2019-03-24T15:50:24.448Z,15.12
2019-03-24T15:56:19.491Z,12.61
2019-03-24T16:02:14.718Z,9.78
2019-03-24T16:08:09.468Z,14.9
2019-03-24T16:14:04.456Z,18.98
2019-03-24T16:19:59.476Z,16.5
2019-03-24T16:31:49.485Z,19.2
2019-03-24T16:31:49.516Z,19.24
2019-03-24T16:37:44.493Z,18.82
2019-03-24T16:43:39.492Z,20.88
2019-03-24T16:49:34.506Z,18.64
2019-03-24T16:55:29.499Z,22.37
2019-03-24T17:01:24.505Z,15.32
2019-03-24T17:07:19.506Z,17.97
2019-03-24T17:13:14.810Z,18.12
2019-03-24T17:19:09.577Z,16.96
2019-03-24T17:25:04.532Z,36.93
2019-03-24T17:30:59.527Z,19.95
2019-03-24T17:36:54.534Z,21.51
2019-03-24T17:42:49.552Z,21.76
2019-03-24T17:48:44.554Z,24.4
2019-03-24T17:54:39.560Z,18.27
2019-03-24T18:00:34.579Z,26.83
2019-03-24T18:06:29.549Z,21.66
2019-03-24T18:12:24.535Z,20.4
2019-03-24T18:18:19.549Z,17.75
2019-03-24T18:24:14.863Z,20.09
2019-03-24T18:30:09.589Z,15.56
2019-03-24T18:36:04.561Z,17.13
2019-03-24T18:41:59.613Z,15.02
2019-03-24T18:47:54.571Z,17.96
2019-03-24T18:53:49.603Z,24.2
2019-03-24T18:59:44.596Z,25.23
2019-03-24T19:05:39.570Z,18.63
2019-03-24T19:11:34.582Z,20.86
2019-03-24T19:17:29.581Z,18.23
2019-03-24T19:23:24.624Z,21.05
2019-03-24T19:29:19.596Z,20.02
2019-03-24T19:35:14.591Z,17.88
2019-03-24T19:41:09.639Z,19.09
2019-03-24T19:47:04.636Z,17.85
2019-03-24T19:52:59.600Z,21.26
2019-03-24T19:58:54.655Z,17.49
2019-03-24T20:04:49.639Z,18.55
2019-03-24T20:10:44.636Z,17.99
2019-03-24T20:16:39.656Z,16.33
2019-03-24T20:22:34.640Z,17.46
2019-03-24T20:28:29.667Z,18.58
2019-03-24T20:34:24.667Z,18.55
2019-03-24T20:40:19.739Z,13.67
2019-03-24T20:46:14.933Z,15.5
2019-03-24T20:52:10.263Z,14.8
2019-03-24T20:58:04.651Z,18.29
2019-03-24T21:03:59.644Z,18.99
2019-03-24T21:09:54.661Z,20.41
2019-03-24T21:15:49.709Z,17.57
2019-03-24T21:21:44.692Z,20.38
2019-03-24T21:27:39.661Z,17.72
2019-03-24T21:33:34.699Z,22.91
2019-03-24T21:39:29.705Z,22.98
2019-03-24T21:45:24.700Z,21.07
2019-03-24T21:51:19.990Z,24.87
2019-03-24T21:57:14.696Z,23.95
2019-03-24T22:03:09.692Z,21.5
2019-03-24T22:09:04.686Z,27.78
2019-03-24T22:14:59.696Z,26.1
2019-03-24T22:20:54.762Z,25.5
2019-03-24T22:26:49.705Z,29.82
2019-03-24T22:32:44.742Z,28.28
2019-03-24T22:38:39.751Z,32.72
2019-03-24T22:50:29.737Z,34.11
2019-03-24T22:50:29.765Z,28.46
2019-03-24T22:56:24.767Z,37.08
2019-03-24T23:02:19.751Z,28.1
2019-03-24T23:08:14.784Z,36.27
2019-03-24T23:14:09.747Z,25.39
2019-03-24T23:20:04.720Z,28.85
2019-03-24T23:25:59.754Z,30.78
2019-03-24T23:31:54.733Z,29.74
2019-03-24T23:37:49.771Z,32.33
2019-03-24T23:43:44.763Z,37.4
2019-03-24T23:49:39.758Z,30.27
2019-03-24T23:55:34.782Z,33.56
